createdAt,value
2019-03-29T00:00:46.535Z,102333.28
2019-03-29T00:03:15.776Z,102334.66
2019-03-29T00:05:45.100Z,102331.06
2019-03-29T00:08:14.265Z,102328.65
2019-03-29T00:10:43.596Z,102322.83
2019-03-29T00:13:14.624Z,102322.38
2019-03-29T00:15:43.773Z,102321.66
2019-03-29T00:18:12.980Z,102320.63
2019-03-29T00:20:42.208Z,102318.95
2019-03-29T00:23:11.409Z,102320.08
2019-03-29T00:25:41.115Z,102321.52
2019-03-29T00:28:11.090Z,102318.31
2019-03-29T00:30:40.621Z,102319.61
2019-03-29T00:33:10.200Z,102315.92
2019-03-29T00:35:39.433Z,102309.73
2019-03-29T00:38:08.642Z,102306.80
2019-03-29T00:40:37.855Z,102310.97
2019-03-29T00:43:07.061Z,102307.45
2019-03-29T00:45:36.298Z,102300.50
2019-03-29T00:48:05.503Z,102301.22
2019-03-29T00:50:34.714Z,102285.84
2019-03-29T00:53:03.941Z,102291.05
2019-03-29T00:55:33.445Z,102288.60
2019-03-29T00:58:02.648Z,102268.72
2019-03-29T01:00:33.666Z,102286.22
2019-03-29T01:03:03.336Z,102281.41
2019-03-29T01:05:32.566Z,102275.15
2019-03-29T01:08:07.666Z,102255.48
2019-03-29T01:10:32.725Z,102256.80
2019-03-29T01:13:01.958Z,102256.44
2019-03-29T01:15:31.159Z,102257.50
2019-03-29T01:18:00.392Z,102255.08
2019-03-29T01:20:29.590Z,102248.78
2019-03-29T01:22:59.982Z,102250.29
2019-03-29T01:25:29.216Z,102255.95
2019-03-29T01:27:58.446Z,102255.95
2019-03-29T01:30:27.658Z,102255.05
2019-03-29T01:32:58.924Z,102262.62
2019-03-29T01:35:28.185Z,102261.61
2019-03-29T01:37:57.678Z,102258.30
2019-03-29T01:40:26.920Z,102246.87
2019-03-29T01:42:57.517Z,102250.73
2019-03-29T01:45:26.730Z,102246.88
2019-03-29T01:47:56.145Z,102245.20
2019-03-29T01:50:25.612Z,102248.83
2019-03-29T01:52:54.634Z,102247.61
2019-03-29T01:55:23.878Z,102250.73
2019-03-29T01:57:54.193Z,102240.05
2019-03-29T02:00:31.686Z,102240.48
2019-03-29T02:03:00.985Z,102244.69
2019-03-29T02:05:30.537Z,102244.67
2019-03-29T02:08:00.212Z,102239.98
2019-03-29T02:10:29.485Z,102239.30
2019-03-29T02:12:59.197Z,102231.41
2019-03-29T02:15:29.027Z,102234.16
2019-03-29T02:17:58.235Z,102230.37
2019-03-29T02:20:27.545Z,102231.03
2019-03-29T02:22:56.770Z,102232.41
2019-03-29T02:25:26.399Z,102233.97
2019-03-29T02:27:56.077Z,102228.97
2019-03-29T02:30:25.693Z,102230.47
2019-03-29T02:32:54.899Z,102235.77
2019-03-29T02:35:24.130Z,102239.58
2019-03-29T02:37:53.335Z,102227.55
2019-03-29T02:40:22.813Z,102229.12
2019-03-29T02:42:52.461Z,102226.72
2019-03-29T02:45:21.666Z,102223.77
2019-03-29T02:47:50.880Z,102224.72
2019-03-29T02:50:20.121Z,102232.50
2019-03-29T02:52:49.324Z,102227.77
2019-03-29T02:55:18.533Z,102231.59
2019-03-29T02:57:47.755Z,102225.58
2019-03-29T03:00:17.451Z,102226.69
2019-03-29T03:02:46.684Z,102224.36
2019-03-29T03:05:16.035Z,102224.20
2019-03-29T03:07:45.231Z,102224.75
2019-03-29T03:10:15.081Z,102230.98
2019-03-29T03:12:44.307Z,102224.98
2019-03-29T03:15:14.036Z,102227.50
2019-03-29T03:17:43.268Z,102224.93
2019-03-29T03:20:15.805Z,102221.72
2019-03-29T03:22:45.209Z,102220.13
2019-03-29T03:25:14.598Z,102218.80
2019-03-29T03:27:43.884Z,102222.52
2019-03-29T03:30:13.979Z,102221.74
2019-03-29T03:32:43.233Z,102221.04
2019-03-29T03:35:15.724Z,102215.20
2019-03-29T03:37:45.266Z,102215.06
2019-03-29T03:40:14.747Z,102217.73
2019-03-29T03:42:44.235Z,102221.48
2019-03-29T03:45:13.626Z,102226.37
2019-03-29T03:47:42.852Z,102223.08
2019-03-29T03:50:38.736Z,102218.55
2019-03-29T03:53:08.153Z,102219.74
2019-03-29T03:55:39.667Z,102216.17
2019-03-29T03:58:10.011Z,102223.55
2019-03-29T04:00:58.741Z,102219.36
2019-03-29T04:03:28.585Z,102210.53
2019-03-29T04:05:58.120Z,102220.31
2019-03-29T04:08:27.712Z,102225.72
2019-03-29T04:10:57.588Z,102221.44
2019-03-29T04:13:26.877Z,102217.72
2019-03-29T04:15:56.091Z,102216.30
2019-03-29T04:18:25.333Z,102212.50
2019-03-29T04:20:54.615Z,102205.47
2019-03-29T04:23:23.817Z,102207.02
2019-03-29T04:25:53.138Z,102202.49
2019-03-29T04:28:22.369Z,102208.21
2019-03-29T04:30:51.570Z,102208.34
2019-03-29T04:33:20.828Z,102203.58
2019-03-29T04:35:50.109Z,102207.15
2019-03-29T04:38:19.319Z,102211.64
2019-03-29T04:40:48.564Z,102196.30
2019-03-29T04:43:17.771Z,102200.13
2019-03-29T04:45:46.971Z,102194.12
2019-03-29T04:48:16.201Z,102197.97
2019-03-29T04:50:45.480Z,102204.28
2019-03-29T04:53:14.713Z,102195.23
2019-03-29T04:55:43.914Z,102207.36
2019-03-29T04:58:13.125Z,102202.48
2019-03-29T05:00:42.351Z,102208.41
2019-03-29T05:03:11.587Z,102206.28
2019-03-29T05:05:40.785Z,102203.80
2019-03-29T05:08:10.353Z,102215.25
2019-03-29T05:10:39.579Z,102207.03
2019-03-29T05:13:08.789Z,102205.84
2019-03-29T05:15:37.977Z,102211.65
2019-03-29T05:18:07.286Z,102212.39
2019-03-29T05:20:36.519Z,102208.21
2019-03-29T05:23:05.723Z,102216.05
2019-03-29T05:25:34.930Z,102203.80
2019-03-29T05:28:04.314Z,102204.28
2019-03-29T05:30:33.513Z,102205.83
2019-03-29T05:33:03.182Z,102204.30
2019-03-29T05:35:32.414Z,102206.07
2019-03-29T05:38:01.613Z,102201.67
2019-03-29T05:40:35.066Z,102206.53
2019-03-29T05:43:01.771Z,102198.08
2019-03-29T05:45:30.969Z,102201.25
2019-03-29T05:48:00.201Z,102202.66
2019-03-29T05:50:29.393Z,102189.89
2019-03-29T05:52:58.595Z,102196.95
2019-03-29T05:55:32.707Z,102190.41
2019-03-29T05:57:58.795Z,102192.89
2019-03-29T06:00:28.022Z,102189.11
2019-03-29T06:02:57.223Z,102185.54
2019-03-29T06:05:26.727Z,102188.94
2019-03-29T06:07:55.962Z,102183.83
2019-03-29T06:10:25.179Z,102190.46
2019-03-29T06:12:54.387Z,102182.58
2019-03-29T06:15:23.614Z,102184.75
2019-03-29T06:17:52.823Z,102185.73
2019-03-29T06:20:22.035Z,102183.07
2019-03-29T06:22:51.273Z,102183.53
2019-03-29T06:25:20.508Z,102179.61
2019-03-29T06:27:49.719Z,102179.94
2019-03-29T06:30:31.041Z,102179.56
2019-03-29T06:33:00.329Z,102179.42
2019-03-29T06:35:33.742Z,102179.00
2019-03-29T06:38:06.012Z,102173.38
2019-03-29T06:40:35.526Z,102169.31
2019-03-29T06:43:04.967Z,102173.64
2019-03-29T06:45:46.869Z,102163.27
2019-03-29T06:48:05.898Z,102168.41
2019-03-29T06:50:35.127Z,102165.99
2019-03-29T06:53:04.402Z,102164.75
2019-03-29T06:55:33.694Z,102164.19
2019-03-29T06:58:03.009Z,102163.90
2019-03-29T07:00:32.210Z,102158.33
2019-03-29T07:03:01.746Z,102161.03
2019-03-29T07:05:31.070Z,102167.62
2019-03-29T07:08:00.680Z,102167.31
2019-03-29T07:10:29.883Z,102158.66
2019-03-29T07:12:59.135Z,102165.27
2019-03-29T07:15:28.406Z,102163.16
2019-03-29T07:17:57.608Z,102153.44
2019-03-29T07:20:26.837Z,102151.30
2019-03-29T07:22:56.052Z,102148.44
2019-03-29T07:25:25.264Z,102147.72
2019-03-29T07:27:54.819Z,102142.09
2019-03-29T07:30:24.477Z,102147.36
2019-03-29T07:32:54.122Z,102144.03
2019-03-29T07:35:23.408Z,102149.27
2019-03-29T07:37:52.633Z,102152.78
2019-03-29T07:40:21.871Z,102153.30
2019-03-29T07:42:51.081Z,102156.83
2019-03-29T07:45:20.377Z,102158.16
2019-03-29T07:47:49.595Z,102149.39
2019-03-29T07:50:19.296Z,102144.73
2019-03-29T07:52:48.545Z,102139.56
2019-03-29T07:55:18.369Z,102140.47
2019-03-29T07:57:47.591Z,102138.92
2019-03-29T08:00:20.210Z,102140.52
2019-03-29T08:02:47.907Z,102134.45
2019-03-29T08:05:17.905Z,102127.27
2019-03-29T08:07:47.769Z,102131.04
2019-03-29T08:10:25.994Z,102133.76
2019-03-29T08:12:49.269Z,102133.53
2019-03-29T08:18:42.446Z,102128.95
2019-03-29T08:21:12.323Z,102126.10
2019-03-29T08:23:42.393Z,102125.27
2019-03-29T08:26:11.941Z,102124.17
2019-03-29T08:28:42.160Z,102124.94
2019-03-29T08:31:11.829Z,102121.56
2019-03-29T08:33:42.016Z,102120.17
2019-03-29T08:36:11.229Z,102115.16
2019-03-29T08:38:40.449Z,102110.52
2019-03-29T08:41:09.709Z,102111.05
2019-03-29T08:43:41.015Z,102108.50
2019-03-29T08:46:14.219Z,102099.45
2019-03-29T08:48:43.118Z,102102.34
2019-03-29T08:51:12.710Z,102100.45
2019-03-29T08:53:44.526Z,102096.03
2019-03-29T08:56:14.621Z,102084.41
2019-03-29T08:58:46.529Z,102087.14
2019-03-29T09:01:19.028Z,102083.05
2019-03-29T09:03:55.201Z,102080.45
2019-03-29T09:06:18.105Z,102086.09
2019-03-29T09:08:47.393Z,102081.25
2019-03-29T09:11:16.633Z,102074.16
2019-03-29T09:13:45.941Z,102076.45
2019-03-29T09:16:15.167Z,102078.69
2019-03-29T09:18:44.367Z,102073.72
2019-03-29T09:21:13.595Z,102069.27
2019-03-29T09:23:42.826Z,102073.13
2019-03-29T09:26:12.714Z,102065.98
2019-03-29T09:28:41.947Z,102064.94
2019-03-29T09:31:11.514Z,102063.94
2019-03-29T09:33:40.739Z,102074.20
2019-03-29T09:36:10.801Z,102074.17
2019-03-29T09:38:43.496Z,102071.34
2019-03-29T09:41:11.062Z,102067.30
2019-03-29T09:43:40.548Z,102064.19
2019-03-29T09:46:09.786Z,102051.88
2019-03-29T09:48:38.995Z,102054.38
2019-03-29T09:51:08.217Z,102046.44
2019-03-29T09:53:40.856Z,102043.52
2019-03-29T09:56:08.397Z,102041.31
2019-03-29T09:58:37.879Z,102044.83
2019-03-29T10:01:07.107Z,102040.73
2019-03-29T10:03:36.801Z,102040.95
2019-03-29T10:06:06.166Z,102032.20
2019-03-29T10:08:35.846Z,102035.60
2019-03-29T10:11:05.081Z,102026.86
2019-03-29T10:13:34.328Z,102034.31
2019-03-29T10:16:03.550Z,102028.22
2019-03-29T10:18:32.781Z,102009.91
2019-03-29T10:21:02.003Z,102012.86
2019-03-29T10:23:31.230Z,102001.30
2019-03-29T10:26:00.510Z,102000.48
2019-03-29T10:28:29.743Z,102001.52
2019-03-29T10:30:58.976Z,101992.02
2019-03-29T10:33:28.232Z,101990.25
2019-03-29T10:35:57.518Z,101990.13
2019-03-29T10:38:26.808Z,101986.42
2019-03-29T10:40:56.109Z,101981.45
2019-03-29T10:43:25.629Z,101973.88
2019-03-29T10:45:54.835Z,101964.91
2019-03-29T10:48:24.066Z,101954.08
2019-03-29T10:50:53.308Z,101953.81
2019-03-29T10:53:22.519Z,101942.84
2019-03-29T10:55:51.734Z,101945.97
2019-03-29T10:58:20.966Z,101939.12
2019-03-29T11:00:50.193Z,101943.30
2019-03-29T11:03:19.413Z,101933.85
2019-03-29T11:05:48.699Z,101934.04
2019-03-29T11:08:17.914Z,101937.88
2019-03-29T11:10:47.147Z,101933.56
2019-03-29T11:13:16.517Z,101935.44
2019-03-29T11:15:45.804Z,101922.01
2019-03-29T11:18:15.032Z,101925.78
2019-03-29T11:20:44.311Z,101921.64
2019-03-29T11:23:13.940Z,101914.43
2019-03-29T11:25:43.233Z,101911.72
2019-03-29T11:28:12.540Z,101906.66
2019-03-29T11:30:42.928Z,101903.78
2019-03-29T11:33:13.603Z,101900.11
2019-03-29T11:35:43.064Z,101901.38
2019-03-29T11:38:12.270Z,101892.11
2019-03-29T11:40:41.486Z,101892.58
2019-03-29T11:43:10.717Z,101876.03
2019-03-29T11:45:39.922Z,101867.63
2019-03-29T11:48:09.783Z,101870.76
2019-03-29T11:50:39.341Z,101865.69
2019-03-29T11:53:08.611Z,101873.98
2019-03-29T11:55:40.397Z,101861.73
2019-03-29T11:58:09.639Z,101851.41
2019-03-29T12:00:40.747Z,101856.67
2019-03-29T12:03:10.167Z,101852.19
2019-03-29T12:05:39.323Z,101850.13
2019-03-29T12:08:08.716Z,101842.57
2019-03-29T12:10:38.343Z,101838.80
2019-03-29T12:13:10.535Z,101837.48
2019-03-29T12:15:40.284Z,101834.58
2019-03-29T12:18:09.626Z,101830.08
2019-03-29T12:20:39.393Z,101823.73
2019-03-29T12:23:08.642Z,101816.18
2019-03-29T12:25:39.310Z,101818.17
2019-03-29T12:28:10.215Z,101816.89
2019-03-29T12:30:40.095Z,101817.50
2019-03-29T12:33:10.140Z,101813.96
2019-03-29T12:35:40.912Z,101806.29
2019-03-29T12:38:10.122Z,101799.69
2019-03-29T12:40:39.376Z,101804.28
2019-03-29T12:43:08.603Z,101794.22
2019-03-29T12:45:38.406Z,101788.58
2019-03-29T12:48:16.993Z,101789.64
2019-03-29T12:50:46.289Z,101785.40
2019-03-29T12:53:15.524Z,101773.38
2019-03-29T12:55:44.841Z,101769.68
2019-03-29T12:58:14.050Z,101767.49
2019-03-29T13:00:43.258Z,101769.41
2019-03-29T13:03:12.580Z,101759.00
2019-03-29T13:05:42.758Z,101755.07
2019-03-29T13:08:12.020Z,101755.28
2019-03-29T13:10:42.719Z,101757.42
2019-03-29T13:13:12.080Z,101740.20
2019-03-29T13:15:41.874Z,101742.95
2019-03-29T13:18:11.250Z,101742.80
2019-03-29T13:20:40.555Z,101744.24
2019-03-29T13:23:09.993Z,101738.66
2019-03-29T13:25:39.281Z,101730.88
2019-03-29T13:28:08.576Z,101719.24
2019-03-29T13:30:37.805Z,101720.19
2019-03-29T13:33:07.129Z,101709.05
2019-03-29T13:35:36.318Z,101706.78
2019-03-29T13:38:05.604Z,101713.11
2019-03-29T13:40:34.898Z,101698.37
2019-03-29T13:43:04.196Z,101706.11
2019-03-29T13:45:33.577Z,101696.38
2019-03-29T13:48:02.870Z,101694.81
2019-03-29T13:50:32.063Z,101680.52
2019-03-29T13:53:01.287Z,101687.87
2019-03-29T13:55:30.480Z,101683.75
2019-03-29T13:57:59.675Z,101678.91
2019-03-29T14:00:28.903Z,101672.09
2019-03-29T14:02:59.249Z,101667.69
2019-03-29T14:05:28.462Z,101657.97
2019-03-29T14:07:57.682Z,101657.33
2019-03-29T14:10:26.882Z,101653.49
2019-03-29T14:12:56.104Z,101653.69
2019-03-29T14:15:25.308Z,101655.52
2019-03-29T14:17:54.531Z,101652.03
2019-03-29T14:20:31.918Z,101644.47
2019-03-29T14:23:01.673Z,101639.31
2019-03-29T14:25:30.896Z,101636.36
2019-03-29T14:28:00.125Z,101632.92
2019-03-29T14:30:29.427Z,101625.58
2019-03-29T14:32:58.642Z,101638.77
2019-03-29T14:35:27.866Z,101637.18
2019-03-29T14:37:57.063Z,101622.41
2019-03-29T14:40:26.292Z,101620.50
2019-03-29T14:42:55.586Z,101617.83
2019-03-29T14:45:24.841Z,101613.16
2019-03-29T14:47:54.058Z,101610.84
2019-03-29T14:50:23.292Z,101603.28
2019-03-29T14:52:52.495Z,101601.72
2019-03-29T14:55:21.785Z,101600.55
2019-03-29T14:57:51.007Z,101600.00
2019-03-29T15:00:36.831Z,101589.91
2019-03-29T15:03:06.171Z,101588.61
2019-03-29T15:05:35.398Z,101587.88
2019-03-29T15:08:04.678Z,101577.41
2019-03-29T15:10:33.875Z,101576.84
2019-03-29T15:13:04.043Z,101575.05
2019-03-29T15:15:33.239Z,101579.23
2019-03-29T15:18:02.432Z,101574.18
2019-03-29T15:20:31.713Z,101570.44
2019-03-29T15:23:00.930Z,101564.88
2019-03-29T15:25:30.123Z,101552.73
2019-03-29T15:27:59.353Z,101550.51
2019-03-29T15:30:28.658Z,101554.80
2019-03-29T15:32:57.940Z,101553.06
2019-03-29T15:35:27.131Z,101540.98
2019-03-29T15:37:56.359Z,101541.75
2019-03-29T15:40:25.554Z,101535.25
2019-03-29T15:42:54.754Z,101534.13
2019-03-29T15:45:24.056Z,101533.06
2019-03-29T15:47:53.273Z,101528.90
2019-03-29T15:50:22.495Z,101526.20
2019-03-29T15:52:51.702Z,101516.20
2019-03-29T15:55:20.944Z,101515.39
2019-03-29T15:57:50.135Z,101518.91
2019-03-29T16:00:19.334Z,101515.97
2019-03-29T16:02:50.744Z,101511.60
2019-03-29T16:05:19.941Z,101507.78
2019-03-29T16:07:49.136Z,101517.48
2019-03-29T16:10:18.442Z,101510.66
2019-03-29T16:12:47.655Z,101504.70
2019-03-29T16:15:16.863Z,101494.28
2019-03-29T16:17:46.085Z,101492.08
2019-03-29T16:20:15.359Z,101491.13
2019-03-29T16:22:44.582Z,101491.14
2019-03-29T16:25:13.870Z,101488.91
2019-03-29T16:27:43.096Z,101485.44
2019-03-29T16:30:13.482Z,101487.21
2019-03-29T16:32:42.777Z,101480.33
2019-03-29T16:35:12.193Z,101479.36
2019-03-29T16:37:41.396Z,101473.69
2019-03-29T16:40:11.104Z,101474.47
2019-03-29T16:42:40.322Z,101466.64
2019-03-29T16:45:09.784Z,101473.06
2019-03-29T16:47:38.970Z,101469.44
2019-03-29T16:50:08.969Z,101463.82
2019-03-29T16:52:38.198Z,101470.05
2019-03-29T16:55:13.665Z,101468.98
2019-03-29T16:57:38.998Z,101468.11
2019-03-29T17:00:12.439Z,101465.20
2019-03-29T17:02:41.143Z,101466.12
2019-03-29T17:05:10.776Z,101464.70
2019-03-29T17:07:39.981Z,101465.06
2019-03-29T17:10:09.756Z,101469.03
2019-03-29T17:12:38.975Z,101470.16
2019-03-29T17:15:08.356Z,101479.23
2019-03-29T17:17:37.661Z,101470.55
2019-03-29T17:20:07.578Z,101479.66
2019-03-29T17:22:38.054Z,101479.60
2019-03-29T17:25:07.936Z,101486.44
2019-03-29T17:27:37.213Z,101482.66
2019-03-29T17:30:09.491Z,101490.68
2019-03-29T17:32:38.727Z,101484.19
2019-03-29T17:35:08.319Z,101486.05
2019-03-29T17:37:37.519Z,101484.92
2019-03-29T17:40:08.066Z,101486.97
2019-03-29T17:42:37.599Z,101484.09
2019-03-29T17:45:07.717Z,101483.89
2019-03-29T17:47:37.546Z,101473.23
2019-03-29T17:50:07.480Z,101480.28
2019-03-29T17:52:37.041Z,101481.53
2019-03-29T17:55:06.990Z,101478.47
2019-03-29T17:57:36.191Z,101488.16
2019-03-29T18:00:06.994Z,101496.16
2019-03-29T18:02:36.230Z,101496.24
2019-03-29T18:05:05.963Z,101493.25
2019-03-29T18:07:35.176Z,101503.20
2019-03-29T18:10:04.800Z,101501.28
2019-03-29T18:12:34.022Z,101503.33
2019-03-29T18:15:03.265Z,101506.84
2019-03-29T18:17:32.550Z,101502.56
2019-03-29T18:20:01.782Z,101505.34
2019-03-29T18:22:31.034Z,101513.17
2019-03-29T18:25:00.450Z,101508.92
2019-03-29T18:27:29.797Z,101504.81
2019-03-29T18:30:00.397Z,101507.97
2019-03-29T18:32:30.104Z,101507.11
2019-03-29T18:35:00.099Z,101512.74
2019-03-29T18:37:29.396Z,101510.38
2019-03-29T18:39:58.990Z,101508.66
2019-03-29T18:42:28.520Z,101503.87
2019-03-29T18:44:57.749Z,101505.14
2019-03-29T18:47:27.343Z,101506.59
2019-03-29T18:49:56.558Z,101506.17
2019-03-29T18:52:25.793Z,101509.15
2019-03-29T18:54:54.991Z,101505.29
2019-03-29T18:57:24.191Z,101513.16
2019-03-29T18:59:53.417Z,101508.28
2019-03-29T19:02:22.618Z,101515.74
2019-03-29T19:04:52.133Z,101521.42
2019-03-29T19:07:28.608Z,101515.66
2019-03-29T19:09:57.846Z,101519.05
2019-03-29T19:12:27.049Z,101523.94
2019-03-29T19:14:56.279Z,101524.05
2019-03-29T19:17:25.805Z,101518.42
2019-03-29T19:19:55.005Z,101521.48
2019-03-29T19:22:24.642Z,101520.44
2019-03-29T19:24:53.927Z,101517.28
2019-03-29T19:27:23.123Z,101516.39
2019-03-29T19:29:52.325Z,101514.87
2019-03-29T19:32:21.920Z,101519.98
2019-03-29T19:34:51.213Z,101516.20
2019-03-29T19:37:20.478Z,101521.76
2019-03-29T19:39:49.679Z,101523.00
2019-03-29T19:42:18.887Z,101518.34
2019-03-29T19:44:48.250Z,101517.68
2019-03-29T19:47:17.449Z,101517.14
2019-03-29T19:49:46.650Z,101518.48
2019-03-29T19:52:15.878Z,101519.69
2019-03-29T19:54:45.084Z,101526.48
2019-03-29T19:57:14.311Z,101525.84
2019-03-29T19:59:43.542Z,101521.23
2019-03-29T20:02:12.757Z,101518.58
2019-03-29T20:04:41.946Z,101520.33
2019-03-29T20:07:11.181Z,101522.09
2019-03-29T20:09:42.077Z,101520.51
2019-03-29T20:12:11.534Z,101517.87
2019-03-29T20:14:40.776Z,101523.20
2019-03-29T20:17:10.335Z,101519.55
2019-03-29T20:19:39.841Z,101524.30
2019-03-29T20:22:09.073Z,101522.02
2019-03-29T20:24:38.277Z,101521.23
2019-03-29T20:27:07.481Z,101522.98
2019-03-29T20:29:36.706Z,101525.08
2019-03-29T20:32:05.946Z,101516.30
2019-03-29T20:34:35.479Z,101517.20
2019-03-29T20:37:04.702Z,101519.09
2019-03-29T20:39:33.938Z,101519.41
2019-03-29T20:42:03.240Z,101518.44
2019-03-29T20:44:32.749Z,101512.52
2019-03-29T20:47:02.283Z,101515.02
2019-03-29T20:49:31.785Z,101508.76
2019-03-29T20:52:01.307Z,101506.42
2019-03-29T20:54:32.038Z,101505.28
2019-03-29T20:57:01.252Z,101504.30
2019-03-29T20:59:30.455Z,101505.45
2019-03-29T21:01:59.959Z,101506.12
2019-03-29T21:04:29.196Z,101502.47
2019-03-29T21:06:58.425Z,101499.53
2019-03-29T21:09:27.659Z,101503.15
2019-03-29T21:11:56.900Z,101498.05
2019-03-29T21:14:26.117Z,101497.36
2019-03-29T21:16:55.317Z,101494.59
2019-03-29T21:19:24.543Z,101489.45
2019-03-29T21:21:53.744Z,101493.38
2019-03-29T21:24:23.050Z,101495.12
2019-03-29T21:26:52.543Z,101493.41
2019-03-29T21:29:22.293Z,101493.91
2019-03-29T21:31:51.519Z,101503.12
2019-03-29T21:34:20.750Z,101499.54
2019-03-29T21:36:50.000Z,101504.78
2019-03-29T21:39:19.235Z,101500.48
2019-03-29T21:41:48.448Z,101501.78
2019-03-29T21:44:18.265Z,101501.61
2019-03-29T21:46:47.506Z,101499.95
2019-03-29T21:49:16.723Z,101490.27
2019-03-29T21:51:45.933Z,101494.88
2019-03-29T21:54:15.169Z,101487.99
2019-03-29T21:56:44.406Z,101486.66
2019-03-29T21:59:13.612Z,101486.29
2019-03-29T22:01:42.849Z,101478.59
2019-03-29T22:04:12.056Z,101484.98
2019-03-29T22:06:41.266Z,101489.22
2019-03-29T22:09:10.786Z,101488.16
2019-03-29T22:11:40.281Z,101489.59
2019-03-29T22:14:09.471Z,101494.78
2019-03-29T22:16:38.785Z,101496.03
2019-03-29T22:19:07.987Z,101497.13
2019-03-29T22:21:37.220Z,101493.28
2019-03-29T22:24:06.420Z,101494.13
2019-03-29T22:26:35.653Z,101487.52
2019-03-29T22:29:04.858Z,101490.34
2019-03-29T22:31:34.088Z,101483.55
2019-03-29T22:34:03.320Z,101484.88
2019-03-29T22:36:32.542Z,101479.96
2019-03-29T22:39:01.767Z,101484.94
2019-03-29T22:41:30.996Z,101476.52
2019-03-29T22:44:00.193Z,101475.86
2019-03-29T22:46:29.397Z,101471.86
2019-03-29T22:48:58.619Z,101476.95
2019-03-29T22:51:27.825Z,101473.36
2019-03-29T22:53:57.040Z,101471.77
2019-03-29T22:56:26.239Z,101473.41
2019-03-29T22:58:55.505Z,101467.14
2019-03-29T23:01:25.298Z,101472.73
2019-03-29T23:03:54.495Z,101463.16
2019-03-29T23:06:23.719Z,101462.75
2019-03-29T23:08:53.293Z,101459.98
2019-03-29T23:11:22.503Z,101461.81
2019-03-29T23:13:51.722Z,101456.94
2019-03-29T23:16:20.937Z,101456.91
2019-03-29T23:18:50.180Z,101454.17
2019-03-29T23:21:19.372Z,101456.80
2019-03-29T23:23:48.590Z,101451.16
2019-03-29T23:26:17.827Z,101456.05
2019-03-29T23:28:47.168Z,101448.41
2019-03-29T23:31:16.326Z,101449.88
2019-03-29T23:33:45.817Z,101446.21
2019-03-29T23:36:15.387Z,101444.59
2019-03-29T23:38:44.945Z,101444.97
2019-03-29T23:41:14.233Z,101443.50
2019-03-29T23:43:43.447Z,101444.03
2019-03-29T23:46:12.679Z,101442.06
2019-03-29T23:48:41.876Z,101437.63
2019-03-29T23:51:11.413Z,101433.00
2019-03-29T23:53:40.636Z,101427.13
2019-03-29T23:56:09.845Z,101429.48
2019-03-29T23:58:39.315Z,101426.16
